Time;durP1;ratioP1;P1;durP2;ratioP2;P2;SDS_P1;SDS_P2;PMS_P1;PMS_P2;Temp;Humidity;BMP_temperature;BMP_pressure;BME280_temperature;BME280_humidity;BME280_pressure;Samples;Min_cycle;Max_cycle;Signal;HPM_P1;HPM_P2
2023/10/12 00:00:52;;;;;;;14.98;8.13;;;;;;;17.72;75.95;101016.38;4966875;28;20063;-76
2023/10/12 00:03:28;;;;;;;18.02;9.18;;;;;;;17.73;77.24;101024.28;4964791;28;20090;-77
2023/10/12 00:06:06;;;;;;;14.80;8.52;;;;;;;17.74;77.43;101035.84;4992961;28;20054;-77
2023/10/12 00:08:52;;;;;;;15.10;8.10;;;;;;;17.70;77.82;101037.81;4972032;28;20070;-76
2023/10/12 00:11:40;;;;;;;15.60;8.80;;;;;;;17.68;78.47;101034.38;4967488;28;20054;-77
2023/10/12 00:14:29;;;;;;;16.52;8.52;;;;;;;17.64;78.92;101036.34;4966932;28;20070;-76
2023/10/12 00:17:17;;;;;;;12.75;8.75;;;;;;;17.63;78.85;101036.44;4969360;28;20046;-77
2023/10/12 00:19:44;;;;;;;15.40;9.32;;;;;;;17.62;79.14;101037.38;4967782;28;20134;-77
2023/10/12 00:22:13;;;;;;;17.27;8.85;;;;;;;17.60;79.31;101045.47;4957727;28;20047;-77
2023/10/12 00:24:41;;;;;;;15.63;9.05;;;;;;;17.57;79.34;101037.63;4968873;28;20050;-76
2023/10/12 00:27:09;;;;;;;16.35;9.38;;;;;;;17.56;79.36;101032.41;4968579;28;20042;-75
2023/10/12 00:29:39;;;;;;;16.02;9.93;;;;;;;17.54;79.91;101035.16;4967158;28;20051;-75
2023/10/12 00:32:13;;;;;;;21.90;10.02;;;;;;;17.51;80.86;101040.66;4967511;28;20133;-77
2023/10/12 00:34:53;;;;;;;15.52;10.80;;;;;;;17.48;81.25;101043.47;4968202;28;20051;-77
2023/10/12 00:37:20;;;;;;;19.58;10.18;;;;;;;17.41;81.88;101042.13;4957483;28;20130;-75
2023/10/12 00:43:14;;;;;;;17.73;10.70;;;;;;;17.31;83.02;101042.63;4959688;28;20054;-76
2023/10/12 00:46:21;;;;;;;21.00;11.40;;;;;;;17.24;83.87;101051.91;4949058;28;20066;-78
2023/10/12 00:49:13;;;;;;;18.55;11.65;;;;;;;17.17;84.67;101048.72;4951134;28;20047;-77
2023/10/12 00:52:21;;;;;;;20.75;12.30;;;;;;;17.10;85.40;101054.47;4957780;28;20053;-79
2023/10/12 00:55:21;;;;;;;20.77;12.57;;;;;;;17.04;87.06;101059.16;4977502;28;20057;-78
2023/10/12 00:57:50;;;;;;;25.00;12.73;;;;;;;16.98;86.49;101061.31;4965542;28;20047;-78
2023/10/12 01:01:00;;;;;;;26.70;13.20;;;;;;;16.98;87.79;101064.84;4964823;28;20672;-78
2023/10/12 01:03:50;;;;;;;25.85;12.88;;;;;;;16.93;88.50;101077.53;4962999;28;20054;-78
2023/10/12 01:06:38;;;;;;;27.27;14.25;;;;;;;16.91;90.70;101076.72;4970638;28;20053;-78
2023/10/12 01:09:43;;;;;;;29.25;14.65;;;;;;;16.82;90.85;101072.75;4973698;28;20137;-78
2023/10/12 01:12:31;;;;;;;24.60;14.68;;;;;;;16.75;92.14;101082.00;4961854;28;20105;-79
2023/10/12 01:15:04;;;;;;;22.90;15.05;;;;;;;16.67;91.42;101085.06;4968825;28;20038;-77
2023/10/12 01:17:51;;;;;;;28.08;15.88;;;;;;;16.64;91.68;101079.03;4968226;28;20051;-77
2023/10/12 01:20:39;;;;;;;22.10;14.88;;;;;;;16.61;92.21;101066.75;4963067;28;20062;-78
2023/10/12 01:23:27;;;;;;;22.90;14.65;;;;;;;16.58;93.19;101078.41;4970790;28;20046;-76
2023/10/12 01:26:10;;;;;;;24.00;15.45;;;;;;;16.54;94.15;101074.19;4967767;28;20054;-77
2023/10/12 01:28:58;;;;;;;26.00;16.70;;;;;;;16.49;94.39;101086.88;4955819;28;20046;-77
2023/10/12 01:31:51;;;;;;;28.75;16.27;;;;;;;16.45;95.42;101077.34;4969171;28;20408;-76
2023/10/12 01:34:44;;;;;;;24.52;17.02;;;;;;;16.42;95.22;101077.47;4963095;28;20171;-80
2023/10/12 01:37:21;;;;;;;25.23;17.05;;;;;;;16.40;96.56;101082.91;4963561;28;20057;-79
2023/10/12 01:47:57;;;;;;;27.33;18.90;;;;;;;16.31;98.55;101099.31;4969896;28;20039;-75
2023/10/12 01:50:25;;;;;;;27.63;17.65;;;;;;;16.30;99.32;101102.91;4970099;28;20049;-77
2023/10/12 01:52:56;;;;;;;27.58;17.48;;;;;;;16.26;99.23;101090.69;4969352;28;20478;-75
2023/10/12 01:55:29;;;;;;;31.95;19.10;;;;;;;16.25;99.49;101078.34;4967072;28;20411;-77
2023/10/12 01:57:58;;;;;;;31.45;18.48;;;;;;;16.24;100.00;101061.53;4966012;28;20047;-76
2023/10/12 02:00:51;;;;;;;26.08;18.83;;;;;;;16.21;100.00;101064.34;4999241;28;20058;-76
2023/10/12 02:03:42;;;;;;;29.60;18.67;;;;;;;16.20;100.00;101032.50;4970855;28;20638;-78
2023/10/12 02:06:30;;;;;;;30.95;18.77;;;;;;;16.18;100.00;101031.72;4972154;28;20057;-75
2023/10/12 02:09:22;;;;;;;34.25;19.88;;;;;;;16.16;100.00;101039.78;4968911;28;20542;-74
2023/10/12 02:12:12;;;;;;;30.60;19.85;;;;;;;16.17;100.00;101049.50;4957513;28;20055;-76
2023/10/12 02:15:01;;;;;;;30.60;19.83;;;;;;;16.18;100.00;101055.66;4967735;28;20055;-76
2023/10/12 02:17:51;;;;;;;30.73;20.55;;;;;;;16.19;100.00;101065.34;4968850;28;20054;-76
2023/10/12 02:20:54;;;;;;;28.95;19.17;;;;;;;16.18;100.00;101060.97;4969988;28;20089;-76
2023/10/12 02:27:00;;;;;;;31.80;19.17;;;;;;;16.17;100.00;101057.47;4968649;28;20058;-76
2023/10/12 02:29:49;;;;;;;32.67;20.48;;;;;;;16.15;100.00;101059.34;4968017;28;21519;-75
2023/10/12 02:32:46;;;;;;;33.95;20.60;;;;;;;16.16;100.00;101055.75;4961329;28;20062;-74
2023/10/12 02:35:36;;;;;;;32.65;21.42;;;;;;;16.15;100.00;101054.03;4977695;28;20503;-75
2023/10/12 02:38:07;;;;;;;38.10;23.13;;;;;;;16.15;100.00;101056.69;5000982;28;20082;-74
2023/10/12 02:40:35;;;;;;;29.83;20.60;;;;;;;16.14;100.00;101063.78;4996641;28;20573;-75
2023/10/12 02:43:21;;;;;;;32.30;21.52;;;;;;;16.14;100.00;101076.22;4949108;28;20114;-74
2023/10/12 02:46:21;;;;;;;35.83;21.42;;;;;;;16.12;100.00;101073.66;4974382;28;20508;-76
2023/10/12 02:48:52;;;;;;;32.42;21.23;;;;;;;16.16;100.00;101082.34;4949334;28;20144;-75
2023/10/12 02:51:40;;;;;;;37.90;22.65;;;;;;;16.13;100.00;101075.34;4974659;28;20051;-75
2023/10/12 02:54:27;;;;;;;32.65;23.05;;;;;;;16.10;100.00;101070.22;4954669;28;20061;-76
2023/10/12 02:57:14;;;;;;;30.88;20.25;;;;;;;16.10;100.00;101056.03;4972309;28;20144;-77
2023/10/12 03:02:58;;;;;;;35.28;21.70;;;;;;;16.08;100.00;101045.47;4964475;28;20046;-76
2023/10/12 03:05:48;;;;;;;33.53;24.38;;;;;;;16.09;100.00;101017.06;4967500;28;20055;-76
2023/10/12 03:08:17;;;;;;;35.03;22.67;;;;;;;16.09;100.00;101049.88;4967528;28;20051;-75
2023/10/12 03:13:36;;;;;;;33.45;22.20;;;;;;;16.09;100.00;101054.31;4965358;28;20047;-74
2023/10/12 03:16:23;;;;;;;37.13;23.42;;;;;;;16.08;100.00;101052.59;4965935;28;20046;-74
2023/10/12 03:19:26;;;;;;;38.72;23.70;;;;;;;16.07;100.00;101040.25;4955813;28;20432;-75
2023/10/12 03:25:43;;;;;;;32.90;22.40;;;;;;;16.04;100.00;101037.75;4964542;28;20487;-77
2023/10/12 03:28:30;;;;;;;;;;;;;;;16.02;100.00;101029.84;4966413;28;20102;-78
2023/10/12 03:31:23;;;;;;;34.17;23.17;;;;;;;16.02;100.00;101021.00;4960629;28;20013;-78
2023/10/12 03:37:18;;;;;;;35.47;22.73;;;;;;;16.02;100.00;101031.63;4949380;28;20082;-78
2023/10/12 03:40:48;;;;;;;35.25;23.70;;;;;;;16.01;100.00;101036.09;4959953;28;20047;-75
2023/10/12 03:43:25;;;;;;;32.03;22.95;;;;;;;15.99;100.00;101030.00;4948882;28;20562;-76
2023/10/12 03:46:26;;;;;;;32.28;21.67;;;;;;;15.97;100.00;101038.03;4960985;28;20062;-76
2023/10/12 03:49:24;;;;;;;34.60;22.80;;;;;;;15.96;100.00;101046.97;4948940;28;20074;-74
2023/10/12 03:52:14;;;;;;;36.15;21.45;;;;;;;15.94;100.00;101054.16;4967267;28;20055;-74
2023/10/12 03:58:07;;;;;;;30.63;21.27;;;;;;;15.85;100.00;101062.59;4965467;28;20091;-74
2023/10/12 04:01:06;;;;;;;28.55;20.92;;;;;;;15.81;100.00;101055.66;4965905;28;20042;-73
2023/10/12 04:04:08;;;;;;;31.25;20.45;;;;;;;15.75;100.00;101051.50;4960378;28;20054;-75
2023/10/12 04:10:00;;;;;;;33.80;20.30;;;;;;;15.69;100.00;101052.66;4967751;28;20059;-75
2023/10/12 04:12:53;;;;;;;33.13;21.40;;;;;;;15.68;100.00;101061.56;4966307;28;20050;-75
2023/10/12 04:21:38;;;;;;;28.95;19.05;;;;;;;15.67;100.00;101067.81;4967903;28;20082;-75
2023/10/12 04:24:29;;;;;;;27.85;19.92;;;;;;;15.68;100.00;101066.03;4968481;28;20141;-75
2023/10/12 04:33:42;;;;;;;28.73;18.98;;;;;;;15.65;100.00;101087.41;4965948;28;20057;-75
2023/10/12 04:36:44;;;;;;;26.50;18.75;;;;;;;15.64;100.00;101091.00;4960363;28;20055;-75
2023/10/12 04:39:36;;;;;;;27.70;17.63;;;;;;;15.68;100.00;101100.56;4960182;28;20138;-74
2023/10/12 04:42:27;;;;;;;27.75;18.13;;;;;;;15.68;100.00;101087.28;4965619;28;20054;-75
2023/10/12 04:48:18;;;;;;;27.13;15.73;;;;;;;15.63;100.00;101076.88;4960587;28;20042;-76
2023/10/12 04:51:07;;;;;;;28.90;17.17;;;;;;;15.66;100.00;101076.75;4967700;28;20047;-76
2023/10/12 04:53:57;;;;;;;31.50;18.85;;;;;;;15.68;100.00;101066.03;4968183;28;20054;-76
2023/10/12 04:56:57;;;;;;;25.35;16.63;;;;;;;15.66;100.00;101066.09;4961303;28;20047;-75
2023/10/12 04:59:51;;;;;;;25.48;16.80;;;;;;;15.69;100.00;101079.22;4963975;28;20145;-76
2023/10/12 05:08:54;;;;;;;;;;;;;;;15.73;100.00;101095.03;4961817;28;20058;-75
2023/10/12 05:11:23;;;;;;;29.52;18.20;;;;;;;15.71;100.00;101087.16;4960655;28;19922;-74
2023/10/12 05:13:50;;;;;;;27.10;18.45;;;;;;;15.69;100.00;101087.19;4959569;28;20046;-74
2023/10/12 05:16:26;;;;;;;25.48;16.23;;;;;;;15.67;100.00;101091.72;4958164;28;20475;-74
2023/10/12 05:18:54;;;;;;;26.83;18.02;;;;;;;15.64;100.00;101091.88;4957798;28;20046;-74
2023/10/12 05:21:21;;;;;;;27.58;17.90;;;;;;;15.63;100.00;101108.75;4960641;28;20039;-74
2023/10/12 05:23:50;;;;;;;29.50;18.15;;;;;;;15.62;100.00;101114.13;4958797;28;20035;-74
2023/10/12 05:26:25;;;;;;;29.90;17.38;;;;;;;15.62;100.00;101108.81;4961805;28;20055;-73
2023/10/12 05:29:17;;;;;;;25.15;17.77;;;;;;;15.59;100.00;101099.19;4963803;28;20122;-74
2023/10/12 05:34:44;;;;;;;31.20;17.73;;;;;;;15.56;100.00;101112.66;4962235;28;20656;-74
2023/10/12 05:39:47;;;;;;;24.17;17.55;;;;;;;15.57;100.00;101110.84;4959344;28;20047;-74
2023/10/12 05:42:15;;;;;;;28.08;17.10;;;;;;;15.55;100.00;101102.97;4961866;28;20041;-74
2023/10/12 05:44:44;;;;;;;29.45;18.48;;;;;;;15.55;100.00;101107.38;4953787;28;20043;-74
2023/10/12 05:47:12;;;;;;;24.98;17.58;;;;;;;15.56;100.00;101109.13;4957680;28;20062;-74
2023/10/12 05:49:40;;;;;;;26.52;16.85;;;;;;;15.57;100.00;101119.66;4965227;28;20682;-74
2023/10/12 05:52:08;;;;;;;27.77;16.58;;;;;;;15.59;100.00;101116.97;4950285;28;20051;-74
2023/10/12 05:54:39;;;;;;;27.80;17.92;;;;;;;15.57;100.00;101124.13;4960128;28;20050;-74
2023/10/12 05:57:17;;;;;;;27.60;17.00;;;;;;;15.57;100.00;101119.66;4957030;28;20119;-74
2023/10/12 05:59:46;;;;;;;26.38;16.17;;;;;;;15.56;100.00;101125.06;4967485;28;20542;-75
2023/10/12 06:02:17;;;;;;;24.35;16.77;;;;;;;15.56;100.00;101136.56;4966702;28;20039;-74
2023/10/12 06:04:45;;;;;;;24.63;16.33;;;;;;;15.57;100.00;101148.88;4960628;28;20572;-75
2023/10/12 06:07:14;;;;;;;25.90;16.42;;;;;;;15.56;100.00;101143.66;4971350;28;20533;-74
2023/10/12 06:09:41;;;;;;;23.13;16.55;;;;;;;15.56;100.00;101141.88;4970392;28;20061;-75
2023/10/12 06:12:11;;;;;;;25.52;17.50;;;;;;;15.57;100.00;101148.88;4970160;28;20093;-75
2023/10/12 06:14:39;;;;;;;26.17;16.52;;;;;;;15.56;100.00;101152.50;4969248;28;20053;-75
2023/10/12 06:17:06;;;;;;;26.52;17.23;;;;;;;15.57;100.00;101154.22;4969821;28;20043;-75
2023/10/12 06:19:34;;;;;;;22.83;16.42;;;;;;;15.59;100.00;101157.66;4970572;28;20511;-75
2023/10/12 06:22:19;;;;;;;22.38;15.80;;;;;;;15.60;100.00;101156.72;4972502;28;20122;-75
2023/10/12 06:24:54;;;;;;;23.13;16.67;;;;;;;15.59;100.00;101156.81;4969846;28;20435;-75
2023/10/12 06:29:54;;;;;;;24.52;14.98;;;;;;;15.61;100.00;101161.13;4967963;28;20049;-75
2023/10/12 06:32:31;;;;;;;27.08;15.35;;;;;;;15.60;100.00;101164.69;4968547;28;20434;-75
2023/10/12 06:45:48;;;;;;;25.30;15.90;;;;;;;15.54;100.00;101170.31;4970187;28;20039;-75
2023/10/12 06:51:05;;;;;;;22.42;14.80;;;;;;;15.52;100.00;101173.03;4969794;28;20050;-74
2023/10/12 06:53:37;;;;;;;23.85;15.18;;;;;;;15.51;100.00;101181.06;4970255;28;20386;-75
2023/10/12 07:04:27;;;;;;;23.50;16.00;;;;;;;15.52;100.00;101188.13;4964934;28;20047;-75
2023/10/12 07:07:10;;;;;;;24.17;15.52;;;;;;;15.52;100.00;101198.75;4968493;28;20050;-76
2023/10/12 07:09:39;;;;;;;21.65;14.20;;;;;;;15.53;100.00;101201.31;4969725;28;20053;-76
2023/10/12 07:12:20;;;;;;;22.67;15.45;;;;;;;15.53;100.00;101203.97;4970222;28;20121;-77
2023/10/12 07:14:47;;;;;;;24.42;15.07;;;;;;;15.54;100.00;101196.88;4968321;28;20642;-77
2023/10/12 07:17:16;;;;;;;25.75;14.30;;;;;;;15.58;100.00;101200.25;4969642;28;20043;-77
2023/10/12 07:19:54;;;;;;;27.30;14.93;;;;;;;15.59;100.00;101201.97;4969143;28;20039;-77
2023/10/12 07:22:21;;;;;;;26.42;15.57;;;;;;;15.63;100.00;101204.44;4988970;28;20624;-77
2023/10/12 07:24:56;;;;;;;25.50;14.82;;;;;;;15.66;100.00;101206.06;4988827;28;20046;-77
2023/10/12 07:27:24;;;;;;;23.33;15.57;;;;;;;15.66;100.00;101217.59;4985130;28;20536;-77
2023/10/12 07:30:30;;;;;;;26.90;15.43;;;;;;;15.69;100.00;101222.75;4969395;28;20045;-77
2023/10/12 07:33:07;;;;;;;23.70;14.70;;;;;;;15.72;100.00;101229.69;4968605;28;20043;-76
2023/10/12 07:35:36;;;;;;;24.42;14.48;;;;;;;15.74;100.00;101232.31;4969687;28;20750;-76
2023/10/12 07:38:12;;;;;;;26.40;14.38;;;;;;;15.74;100.00;101235.81;4975512;28;20129;-77
2023/10/12 07:40:56;;;;;;;22.88;13.77;;;;;;;15.73;100.00;101231.44;4988130;28;20061;-77
2023/10/12 07:43:24;;;;;;;22.23;14.00;;;;;;;15.75;100.00;101236.69;4988763;28;20526;-76
2023/10/12 07:45:53;;;;;;;23.02;14.07;;;;;;;15.75;100.00;101234.88;4988934;28;20160;-77
2023/10/12 07:48:31;;;;;;;24.75;14.85;;;;;;;15.77;100.00;101242.81;4978786;28;20047;-77
2023/10/12 07:51:24;;;;;;;24.90;14.63;;;;;;;15.78;100.00;101239.19;4979591;28;20059;-76
2023/10/12 07:54:10;;;;;;;20.45;13.75;;;;;;;15.79;100.00;101228.50;4985248;28;20407;-76
2023/10/12 07:56:40;;;;;;;24.90;14.05;;;;;;;15.81;100.00;101231.09;4968441;28;20038;-77
2023/10/12 07:59:14;;;;;;;20.73;13.75;;;;;;;15.82;100.00;101233.66;4968743;28;20050;-77
2023/10/12 08:01:50;;;;;;;19.05;13.65;;;;;;;15.83;100.00;101245.19;5000146;28;20047;-77
2023/10/12 08:04:29;;;;;;;23.65;14.23;;;;;;;15.82;100.00;101248.75;4969364;28;20043;-77
2023/10/12 08:06:56;;;;;;;26.15;13.57;;;;;;;15.83;100.00;101250.50;4968982;28;20636;-76
2023/10/12 08:11:53;;;;;;;21.92;13.55;;;;;;;15.86;100.00;101249.50;4968533;28;20071;-76
2023/10/12 08:19:44;;;;;;;22.02;13.95;;;;;;;15.91;100.00;101242.22;4967028;28;20567;-77
2023/10/12 08:22:26;;;;;;;21.27;14.05;;;;;;;15.94;100.00;101244.69;4968973;28;20500;-77
2023/10/12 08:24:56;;;;;;;21.75;13.40;;;;;;;15.98;100.00;101246.28;4968707;28;20710;-75
2023/10/12 08:27:39;;;;;;;23.88;13.18;;;;;;;16.00;100.00;101247.09;4968374;28;20070;-76
2023/10/12 08:33:14;;;;;;;21.58;13.13;;;;;;;15.97;100.00;101248.06;4974251;28;20065;-77
2023/10/12 08:38:33;;;;;;;18.75;12.77;;;;;;;15.93;100.00;101259.81;4949379;28;20051;-76
2023/10/12 08:41:20;;;;;;;24.77;13.43;;;;;;;15.92;100.00;101257.22;4949724;28;20051;-76
2023/10/12 08:43:48;;;;;;;23.20;13.95;;;;;;;15.89;100.00;101254.69;4948374;28;20055;-76
2023/10/12 08:46:41;;;;;;;29.27;13.65;;;;;;;15.90;100.00;101259.94;4954288;28;20039;-75
2023/10/12 08:52:20;;;;;;;25.63;12.73;;;;;;;15.87;100.00;101257.44;5022693;28;20684;-75
2023/10/12 08:54:57;;;;;;;28.40;13.15;;;;;;;15.84;100.00;101255.75;4991752;28;20078;-76
2023/10/12 08:57:38;;;;;;;24.95;13.05;;;;;;;15.82;100.00;101252.28;4974321;28;20128;-76
2023/10/12 09:00:38;;;;;;;26.98;12.77;;;;;;;15.84;100.00;101258.41;4968120;28;20039;-75
2023/10/12 09:05:51;;;;;;;24.38;13.32;;;;;;;15.82;100.00;101264.72;4974385;28;20049;-76
2023/10/12 09:10:51;;;;;;;22.90;12.77;;;;;;;15.75;100.00;101276.56;4968475;28;20047;-75
2023/10/12 09:13:19;;;;;;;23.65;13.38;;;;;;;15.74;100.00;101281.00;4999930;28;20050;-75
2023/10/12 09:15:54;;;;;;;22.05;12.45;;;;;;;15.76;100.00;101272.97;4956583;28;20047;-75
2023/10/12 09:18:43;;;;;;;25.27;13.13;;;;;;;15.75;100.00;101272.09;4950390;28;20043;-75
2023/10/12 09:24:14;;;;;;;21.83;12.68;;;;;;;15.75;100.00;101265.94;4988142;28;20043;-75
2023/10/12 09:26:49;;;;;;;21.83;12.82;;;;;;;15.73;100.00;101263.31;4971960;28;20057;-75
2023/10/12 09:29:23;;;;;;;19.65;12.98;;;;;;;15.74;100.00;101264.22;4976148;28;20042;-76
2023/10/12 09:32:14;;;;;;;;;;;;;;;15.76;100.00;101273.84;4981204;28;20137;-76
2023/10/12 09:37:28;;;;;;;22.75;13.63;;;;;;;15.93;100.00;101270.44;4968411;28;20050;-76
2023/10/12 09:39:56;;;;;;;20.67;13.25;;;;;;;16.04;100.00;101269.09;4969533;28;20081;-74
2023/10/12 09:42:29;;;;;;;22.75;14.70;;;;;;;16.11;100.00;101262.53;4970945;28;20130;-74
2023/10/12 09:45:10;;;;;;;24.67;14.93;;;;;;;16.23;100.00;101264.63;4970518;28;20071;-74
2023/10/12 09:48:05;;;;;;;24.00;13.82;;;;;;;16.33;100.00;101266.84;4970743;28;20043;-74
2023/10/12 09:50:34;;;;;;;20.73;13.90;;;;;;;16.40;100.00;101269.13;4975391;28;20046;-75
2023/10/12 09:53:14;;;;;;;26.52;14.18;;;;;;;16.51;100.00;101257.97;4983733;28;20126;-74
2023/10/12 09:55:54;;;;;;;20.15;13.73;;;;;;;16.66;100.00;101250.19;4970426;28;20053;-74
2023/10/12 09:58:22;;;;;;;38.10;15.77;;;;;;;16.79;100.00;101250.41;4979003;28;20046;-74
2023/10/12 10:00:55;;;;;;;23.60;14.90;;;;;;;16.91;100.00;101247.16;4975930;28;20130;-74
2023/10/12 10:03:37;;;;;;;23.50;13.68;;;;;;;16.92;100.00;101244.41;4969453;28;20136;-74
2023/10/12 10:06:19;;;;;;;22.17;13.57;;;;;;;16.91;100.00;101255.13;4969543;28;20051;-74
2023/10/12 10:11:57;;;;;;;21.10;13.57;;;;;;;16.90;100.00;101259.59;4961696;28;20061;-74
2023/10/12 10:14:29;;;;;;;21.55;14.27;;;;;;;16.95;100.00;101256.72;4969874;28;20042;-74
2023/10/12 10:17:01;;;;;;;21.23;14.73;;;;;;;17.04;100.00;101260.72;4970555;28;20131;-74
2023/10/12 10:19:29;;;;;;;21.02;14.80;;;;;;;17.10;100.00;101257.75;4969251;28;20175;-74
2023/10/12 10:22:05;;;;;;;18.65;14.13;;;;;;;17.11;100.00;101253.28;4969822;28;20054;-73
2023/10/12 10:24:46;;;;;;;23.73;15.90;;;;;;;17.03;100.00;101238.56;4967800;28;20534;-74
2023/10/12 10:27:15;;;;;;;21.45;14.75;;;;;;;16.99;100.00;101234.34;4970471;28;20133;-75
2023/10/12 10:29:54;;;;;;;25.35;14.35;;;;;;;16.97;100.00;101238.88;4972407;28;20038;-74
2023/10/12 10:32:32;;;;;;;23.30;14.32;;;;;;;16.92;100.00;101249.72;4969959;28;20043;-74
2023/10/12 10:35:18;;;;;;;20.80;14.15;;;;;;;16.85;100.00;101256.31;4969449;28;20050;-75
2023/10/12 10:37:47;;;;;;;21.88;15.25;;;;;;;16.80;100.00;101250.34;4968040;28;20129;-74
2023/10/12 10:40:20;;;;;;;22.00;15.07;;;;;;;16.77;100.00;101251.34;4969395;28;20066;-75
2023/10/12 10:43:05;;;;;;;24.88;15.80;;;;;;;16.77;100.00;101247.84;4969216;28;20043;-74
2023/10/12 10:45:37;;;;;;;24.92;15.88;;;;;;;16.77;100.00;101240.72;4970389;28;20047;-75
2023/10/12 10:48:05;;;;;;;22.63;15.13;;;;;;;16.82;100.00;101237.81;4968680;28;20042;-75
2023/10/12 10:50:42;;;;;;;23.17;16.70;;;;;;;16.90;100.00;101242.75;4968081;28;20045;-75
2023/10/12 10:53:09;;;;;;;26.30;17.20;;;;;;;17.01;100.00;101242.22;4973354;28;20152;-75
2023/10/12 10:55:36;;;;;;;25.38;17.33;;;;;;;17.15;100.00;101244.19;4969244;28;20043;-75
2023/10/12 10:58:07;;;;;;;24.23;15.95;;;;;;;17.29;100.00;101244.34;4970177;28;20053;-75
2023/10/12 11:00:36;;;;;;;23.02;15.45;;;;;;;17.38;100.00;101232.34;4970567;28;20714;-74
2023/10/12 11:03:04;;;;;;;24.23;15.82;;;;;;;17.43;100.00;101224.97;4969472;28;20066;-75
2023/10/12 11:05:37;;;;;;;21.90;15.27;;;;;;;17.47;100.00;101229.19;4968601;28;20054;-74
2023/10/12 11:08:19;;;;;;;22.17;15.02;;;;;;;17.52;100.00;101229.78;4969324;28;20046;-75
2023/10/12 11:13:39;;;;;;;22.05;15.10;;;;;;;17.63;100.00;101223.03;4975046;28;20127;-75
2023/10/12 11:16:28;;;;;;;21.30;14.63;;;;;;;17.64;100.00;101225.63;4968673;28;20117;-75
2023/10/12 11:18:58;;;;;;;25.75;14.90;;;;;;;17.61;100.00;101224.91;4961410;28;20538;-75
2023/10/12 11:21:26;;;;;;;20.55;15.55;;;;;;;17.59;100.00;101219.66;4968672;28;20050;-75
2023/10/12 11:24:09;;;;;;;25.75;14.57;;;;;;;17.59;100.00;101208.16;4967461;28;20070;-75
2023/10/12 11:26:52;;;;;;;21.63;14.50;;;;;;;17.58;100.00;101201.94;4968791;28;20705;-73
2023/10/12 11:29:20;;;;;;;23.85;15.15;;;;;;;17.58;100.00;101198.44;4969831;28;20074;-74
2023/10/12 11:32:09;;;;;;;20.02;15.32;;;;;;;17.57;100.00;101196.72;4969244;28;20081;-74
2023/10/12 11:34:45;;;;;;;22.05;15.98;;;;;;;17.51;100.00;101174.75;4966555;28;20742;-74
2023/10/12 11:37:14;;;;;;;21.35;15.43;;;;;;;17.54;100.00;101187.09;4968941;28;20137;-74
2023/10/12 11:39:51;;;;;;;22.58;14.98;;;;;;;17.58;100.00;101185.97;4969634;28;20066;-73
2023/10/12 11:42:18;;;;;;;21.58;15.25;;;;;;;17.57;100.00;101181.56;4968063;28;20125;-73
2023/10/12 11:44:47;;;;;;;23.65;16.90;;;;;;;17.56;100.00;101182.50;4968543;28;20035;-73
2023/10/12 11:47:24;;;;;;;19.77;15.35;;;;;;;17.58;100.00;101185.97;4968242;28;20046;-73
2023/10/12 11:49:55;;;;;;;26.45;16.33;;;;;;;17.59;100.00;101190.34;4967159;28;20045;-73
2023/10/12 11:52:32;;;;;;;21.15;16.13;;;;;;;17.57;100.00;101194.91;4982176;28;20039;-73
2023/10/12 11:55:06;;;;;;;23.02;16.52;;;;;;;17.58;100.00;101195.78;4949719;28;20052;-74
2023/10/12 11:57:40;;;;;;;25.02;17.60;;;;;;;17.58;100.00;101191.28;4956193;28;20046;-73
2023/10/12 12:00:21;;;;;;;28.55;18.05;;;;;;;17.60;100.00;101183.22;4964500;28;20053;-74
2023/10/12 12:02:57;;;;;;;31.23;17.05;;;;;;;17.63;100.00;101199.91;4957118;28;20583;-74
2023/10/12 12:05:26;;;;;;;23.10;17.38;;;;;;;17.65;100.00;101198.00;4967345;28;20057;-74
2023/10/12 12:07:54;;;;;;;22.33;16.30;;;;;;;17.69;100.00;101194.22;4966987;28;20070;-74
2023/10/12 12:10:26;;;;;;;21.65;17.15;;;;;;;17.74;100.00;101185.13;4965572;28;20126;-74
2023/10/12 12:12:57;;;;;;;21.10;15.95;;;;;;;17.76;100.00;101176.09;4964974;28;20496;-74
2023/10/12 12:15:25;;;;;;;21.80;15.40;;;;;;;17.78;100.00;101176.00;4968031;28;20057;-74
2023/10/12 12:17:52;;;;;;;23.98;15.43;;;;;;;17.78;100.00;101176.00;4968309;28;20070;-74
2023/10/12 12:20:22;;;;;;;21.48;15.13;;;;;;;17.77;100.00;101172.50;4969833;28;20135;-75
2023/10/12 12:22:49;;;;;;;21.95;14.90;;;;;;;17.79;100.00;101173.28;4975926;28;20067;-74
2023/10/12 12:25:31;;;;;;;22.05;14.38;;;;;;;17.81;100.00;101175.84;4968508;28;20041;-74
2023/10/12 12:28:01;;;;;;;21.63;15.23;;;;;;;17.80;100.00;101172.31;4968830;28;20074;-74
2023/10/12 12:30:32;;;;;;;22.38;15.73;;;;;;;17.80;100.00;101171.44;4968208;28;20039;-74
2023/10/12 12:33:19;;;;;;;22.70;16.10;;;;;;;17.78;100.00;101174.22;4968360;28;20046;-74
2023/10/12 12:35:48;;;;;;;21.38;15.43;;;;;;;17.78;100.00;101176.00;4966428;28;20047;-74
2023/10/12 12:38:59;;;;;;;24.08;16.42;;;;;;;17.74;100.00;101180.66;4963385;28;20052;-75
2023/10/12 12:41:23;;;;;;;23.92;15.52;;;;;;;17.77;100.00;101171.63;4965785;28;20054;-74
2023/10/12 12:43:52;;;;;;;21.50;16.58;;;;;;;17.86;100.00;101160.44;4965224;28;20130;-74
2023/10/12 12:46:20;;;;;;;20.63;14.98;;;;;;;17.96;100.00;101168.78;4956463;28;20215;-74
2023/10/12 12:48:51;;;;;;;23.95;14.18;;;;;;;18.07;100.00;101162.88;4962050;28;20047;-74
2023/10/12 12:51:20;;;;;;;21.33;13.30;;;;;;;18.20;100.00;101155.03;4954673;28;20071;-75
2023/10/12 12:53:51;;;;;;;19.42;12.07;;;;;;;18.28;100.00;101145.63;4964649;28;20043;-76
2023/10/12 12:56:22;;;;;;;19.17;11.57;;;;;;;18.37;100.00;101146.03;4958774;28;20592;-75
2023/10/12 12:58:51;;;;;;;17.42;10.90;;;;;;;18.39;100.00;101149.47;4962357;28;20043;-75
2023/10/12 13:01:24;;;;;;;15.38;10.15;;;;;;;18.35;100.00;101146.13;4965874;28;20149;-76
2023/10/12 13:03:55;;;;;;;16.60;9.40;;;;;;;18.34;100.00;101149.75;4965997;28;20043;-75
2023/10/12 13:06:24;;;;;;;15.05;8.02;;;;;;;18.29;100.00;101149.19;4962470;28;20042;-75
2023/10/12 13:08:52;;;;;;;12.65;7.88;;;;;;;18.26;100.00;101144.84;4967801;28;20050;-75
2023/10/12 13:11:20;;;;;;;16.55;8.32;;;;;;;18.23;100.00;101145.06;4970056;28;20125;-75
2023/10/12 13:13:48;;;;;;;14.00;8.75;;;;;;;18.20;100.00;101139.03;4960697;28;20047;-75
2023/10/12 13:16:16;;;;;;;16.27;8.63;;;;;;;18.19;100.00;101142.66;4968992;28;20039;-75
2023/10/12 13:18:46;;;;;;;15.13;8.45;;;;;;;18.18;100.00;101147.09;4969661;28;20442;-75
2023/10/12 13:21:16;;;;;;;13.77;8.50;;;;;;;18.18;100.00;101147.09;4969020;28;20066;-75
2023/10/12 13:23:44;;;;;;;15.38;8.07;;;;;;;18.18;100.00;101148.94;4968976;28;20062;-75
2023/10/12 13:26:17;;;;;;;18.17;8.60;;;;;;;18.14;100.00;101150.91;4962037;28;20043;-75
2023/10/12 13:28:45;;;;;;;16.13;8.68;;;;;;;18.10;100.00;101155.56;5000083;28;20094;-75
2023/10/12 13:31:12;;;;;;;16.58;7.65;;;;;;;18.07;100.00;101166.41;4964618;28;20122;-75
2023/10/12 13:33:43;;;;;;;17.98;8.63;;;;;;;18.04;100.00;101158.56;4966584;28;20056;-75
2023/10/12 13:36:11;;;;;;;14.00;8.45;;;;;;;18.08;100.00;101157.47;4965796;28;20054;-76
2023/10/12 13:38:39;;;;;;;14.65;8.43;;;;;;;18.09;100.00;101148.50;4966759;28;20055;-76
2023/10/12 13:41:10;;;;;;;15.00;8.48;;;;;;;18.07;100.00;101147.75;4963054;28;20129;-76
2023/10/12 13:43:39;;;;;;;12.38;8.68;;;;;;;18.07;100.00;101145.06;4968372;28;20086;-74
2023/10/12 13:46:10;;;;;;;16.85;8.88;;;;;;;18.07;100.00;101145.06;4970312;28;20050;-74
2023/10/12 13:48:38;;;;;;;16.83;8.10;;;;;;;18.04;100.00;101150.56;4962555;28;20130;-74
2023/10/12 13:51:12;;;;;;;16.48;8.93;;;;;;;17.98;100.00;101159.78;4966324;28;20035;-74